createdAt,value
2023-02-18T00:00:23.872Z,9.90
2023-02-18T00:02:52.733Z,11.27
2023-02-18T00:05:20.446Z,11.33
2023-02-18T00:07:48.087Z,10.50
2023-02-18T00:10:16.561Z,10.90
2023-02-18T00:12:44.140Z,10.63
2023-02-18T00:15:11.695Z,11.20
2023-02-18T00:17:39.272Z,10.80
2023-02-18T00:20:07.596Z,12.03
2023-02-18T00:22:35.178Z,10.70
2023-02-18T00:25:02.657Z,11.27
2023-02-18T00:27:30.248Z,11.13
2023-02-18T00:29:58.716Z,11.23
2023-02-18T00:32:26.305Z,12.33
2023-02-18T00:34:53.820Z,12.10
2023-02-18T00:37:21.451Z,11.40
2023-02-18T00:39:49.023Z,11.27
2023-02-18T00:42:16.620Z,10.93
2023-02-18T00:44:44.169Z,11.10
2023-02-18T00:47:11.777Z,11.87
2023-02-18T00:49:39.311Z,11.87
2023-02-18T00:52:06.917Z,12.00
2023-02-18T00:54:34.428Z,11.67
2023-02-18T00:57:01.988Z,11.80
2023-02-18T00:59:29.495Z,11.03
2023-02-18T01:01:57.139Z,10.93
2023-02-18T01:04:24.656Z,11.63
2023-02-18T01:06:52.230Z,10.60
2023-02-18T01:09:19.767Z,10.43
2023-02-18T01:11:47.347Z,10.13
2023-02-18T01:14:14.921Z,9.50
2023-02-18T01:16:43.553Z,9.13
2023-02-18T01:19:11.036Z,9.13
2023-02-18T01:21:38.637Z,9.43
2023-02-18T01:24:06.436Z,8.63
2023-02-18T01:26:34.073Z,9.30
2023-02-18T01:29:01.582Z,8.90
2023-02-18T01:31:29.229Z,8.23
2023-02-18T01:33:56.784Z,8.47
2023-02-18T01:36:24.328Z,9.40
2023-02-18T01:38:51.835Z,7.67
2023-02-18T01:41:19.566Z,8.60
2023-02-18T01:43:47.063Z,7.50
2023-02-18T01:46:21.617Z,7.40
2023-02-18T01:48:55.228Z,7.70
2023-02-18T01:51:25.584Z,7.90
2023-02-18T01:53:59.196Z,8.10
2023-02-18T01:56:34.390Z,7.47
2023-02-18T01:59:03.754Z,7.00
2023-02-18T02:01:33.036Z,6.57
2023-02-18T02:04:00.670Z,7.17
2023-02-18T02:06:28.507Z,7.57
2023-02-18T02:08:58.017Z,7.50
2023-02-18T02:11:33.753Z,6.80
2023-02-18T02:14:01.291Z,6.50
2023-02-18T02:16:28.948Z,7.53
2023-02-18T02:19:08.641Z,7.20
2023-02-18T02:21:38.962Z,6.93
2023-02-18T02:24:26.759Z,7.07
2023-02-18T02:26:57.056Z,7.07
2023-02-18T02:29:36.480Z,7.17
2023-02-18T02:32:11.377Z,7.00
2023-02-18T02:34:38.927Z,7.77
2023-02-18T02:37:25.297Z,7.23
2023-02-18T02:39:55.906Z,7.57
2023-02-18T02:42:38.383Z,7.00
2023-02-18T02:45:18.775Z,7.20
2023-02-18T02:47:50.878Z,7.43
2023-02-18T02:50:23.701Z,7.57
2023-02-18T02:52:53.488Z,8.17
2023-02-18T02:55:21.074Z,8.93
2023-02-18T02:57:50.308Z,8.30
2023-02-18T03:00:19.087Z,9.23
2023-02-18T03:03:06.980Z,8.60
2023-02-18T03:05:53.212Z,9.20
2023-02-18T03:08:29.959Z,9.90
2023-02-18T03:11:02.745Z,10.37
2023-02-18T03:13:30.266Z,9.17
2023-02-18T03:16:02.147Z,10.73
2023-02-18T03:18:32.473Z,10.37
2023-02-18T03:20:59.972Z,10.30
2023-02-18T03:23:33.604Z,10.13
2023-02-18T03:26:01.434Z,10.67
2023-02-18T03:28:30.781Z,10.27
2023-02-18T03:31:19.121Z,10.77
2023-02-18T03:33:48.270Z,10.60
2023-02-18T03:36:15.794Z,9.73
2023-02-18T03:38:46.305Z,10.37
2023-02-18T03:41:14.146Z,9.33
2023-02-18T03:43:42.179Z,9.07
2023-02-18T03:46:10.171Z,10.17
2023-02-18T03:48:37.895Z,8.87
2023-02-18T03:51:05.554Z,7.83
2023-02-18T03:53:33.053Z,8.97
2023-02-18T03:56:00.672Z,7.50
2023-02-18T03:58:28.162Z,7.50
2023-02-18T04:00:55.806Z,8.10
2023-02-18T04:03:23.352Z,6.47
2023-02-18T04:05:50.895Z,7.00
2023-02-18T04:08:18.398Z,5.93
2023-02-18T04:10:45.989Z,6.43
2023-02-18T04:13:13.798Z,5.87
2023-02-18T04:15:41.395Z,5.30
2023-02-18T04:18:08.889Z,4.33
2023-02-18T04:20:36.469Z,4.43
2023-02-18T04:23:04.542Z,4.27
2023-02-18T04:25:32.153Z,3.47
2023-02-18T04:27:59.667Z,3.03
2023-02-18T04:30:27.337Z,3.07
2023-02-18T04:32:54.804Z,2.60
2023-02-18T04:35:22.293Z,2.00
2023-02-18T04:37:50.166Z,2.17
2023-02-18T04:40:17.743Z,2.10
2023-02-18T04:42:45.354Z,2.10
2023-02-18T04:45:12.855Z,1.70
2023-02-18T04:47:40.492Z,1.70
2023-02-18T04:50:08.514Z,1.90
2023-02-18T04:52:36.110Z,1.90
2023-02-18T04:55:03.647Z,1.90
2023-02-18T04:57:31.263Z,2.03
2023-02-18T04:59:58.775Z,1.70
2023-02-18T05:02:26.381Z,2.03
2023-02-18T05:04:53.845Z,1.90
2023-02-18T05:07:21.468Z,1.47
2023-02-18T05:09:48.976Z,1.73
2023-02-18T05:12:16.586Z,1.77
2023-02-18T05:14:44.097Z,1.90
2023-02-18T05:17:11.661Z,1.90
2023-02-18T05:19:39.174Z,1.90
2023-02-18T05:22:06.737Z,2.27
2023-02-18T05:24:34.259Z,1.77
2023-02-18T05:27:01.897Z,1.87
2023-02-18T05:29:29.446Z,2.10
2023-02-18T05:31:57.026Z,1.93
2023-02-18T05:34:24.574Z,1.73
2023-02-18T05:36:52.114Z,2.03
2023-02-18T05:39:19.621Z,2.00
2023-02-18T05:41:47.281Z,1.70
2023-02-18T05:44:14.796Z,1.77
2023-02-18T05:46:42.443Z,2.00
2023-02-18T05:49:10.061Z,2.20
2023-02-18T05:51:37.598Z,1.63
2023-02-18T05:54:05.540Z,1.50
2023-02-18T05:56:33.095Z,1.93
2023-02-18T05:59:00.625Z,2.17
2023-02-18T06:01:28.388Z,2.10
2023-02-18T06:03:55.889Z,2.10
2023-02-18T06:06:23.498Z,2.17
2023-02-18T06:08:51.086Z,2.63
2023-02-18T06:11:18.868Z,2.10
2023-02-18T06:13:46.405Z,2.57
2023-02-18T06:16:14.098Z,2.17
2023-02-18T06:18:41.645Z,2.57
2023-02-18T06:21:09.356Z,2.73
2023-02-18T06:23:38.895Z,2.30
2023-02-18T06:26:06.888Z,2.90
2023-02-18T06:28:34.735Z,2.50
2023-02-18T06:31:02.505Z,2.37
2023-02-18T06:33:30.206Z,2.40
2023-02-18T06:36:02.040Z,2.47
2023-02-18T06:38:29.899Z,2.50
2023-02-18T06:40:57.401Z,2.57
2023-02-18T06:43:24.951Z,2.30
2023-02-18T06:45:52.738Z,2.23
2023-02-18T06:48:20.437Z,2.10
2023-02-18T06:50:49.111Z,2.10
2023-02-18T06:53:16.775Z,1.80
2023-02-18T06:55:44.925Z,2.03
2023-02-18T06:58:13.287Z,2.00
2023-02-18T07:00:40.914Z,1.73
2023-02-18T07:03:08.666Z,2.00
2023-02-18T07:05:36.204Z,1.50
2023-02-18T07:08:03.802Z,1.40
2023-02-18T07:10:31.339Z,1.67
2023-02-18T07:12:59.037Z,1.60
2023-02-18T07:15:26.559Z,1.67
2023-02-18T07:17:54.644Z,1.40
2023-02-18T07:20:22.581Z,1.20
2023-02-18T07:22:50.890Z,1.30
2023-02-18T07:25:18.557Z,1.17
2023-02-18T07:27:46.389Z,1.40
2023-02-18T07:30:17.417Z,1.40
2023-02-18T07:32:44.960Z,1.40
2023-02-18T07:35:14.330Z,1.37
2023-02-18T07:37:45.383Z,1.33
2023-02-18T07:40:18.321Z,1.40
2023-02-18T07:42:46.067Z,1.77
2023-02-18T07:45:13.617Z,1.60
2023-02-18T07:47:41.554Z,1.63
2023-02-18T07:50:09.622Z,1.40
2023-02-18T07:52:37.175Z,1.63
2023-02-18T07:55:04.743Z,1.83
2023-02-18T07:57:32.323Z,1.97
2023-02-18T07:59:59.909Z,2.17
2023-02-18T08:02:27.560Z,1.57
2023-02-18T08:04:55.092Z,1.60
2023-02-18T08:07:23.610Z,1.60
2023-02-18T08:09:51.204Z,2.00
2023-02-18T08:12:18.877Z,1.80
2023-02-18T08:14:46.454Z,2.10
2023-02-18T08:17:14.066Z,2.73
2023-02-18T08:19:41.559Z,1.87
2023-02-18T08:22:09.249Z,2.13
2023-02-18T08:24:36.741Z,1.90
2023-02-18T08:27:04.400Z,2.73
2023-02-18T08:29:31.923Z,1.90
2023-02-18T08:31:59.501Z,2.70
2023-02-18T08:34:27.182Z,1.80
2023-02-18T08:36:54.692Z,2.57
2023-02-18T08:39:22.202Z,1.97
2023-02-18T08:41:49.792Z,2.33
2023-02-18T08:44:17.325Z,1.97
2023-02-18T08:46:44.959Z,2.47
2023-02-18T08:49:12.491Z,2.60
2023-02-18T08:51:40.024Z,2.27
2023-02-18T08:54:07.576Z,2.50
2023-02-18T08:56:35.152Z,2.70
2023-02-18T08:59:02.661Z,2.30
2023-02-18T09:01:30.262Z,2.23
2023-02-18T09:03:57.962Z,2.20
2023-02-18T09:06:25.713Z,2.10
2023-02-18T09:08:53.287Z,3.00
2023-02-18T09:11:21.120Z,2.40
2023-02-18T09:13:48.764Z,2.53
2023-02-18T09:16:17.756Z,2.43
2023-02-18T09:18:45.786Z,2.17
2023-02-18T09:21:14.191Z,2.67
2023-02-18T09:23:42.304Z,2.30
2023-02-18T09:26:11.336Z,2.10
2023-02-18T09:28:39.006Z,2.63
2023-02-18T09:31:07.355Z,3.00
2023-02-18T09:33:43.680Z,3.03
2023-02-18T09:36:12.366Z,2.43
2023-02-18T09:38:39.906Z,2.90
2023-02-18T09:41:09.868Z,2.90
2023-02-18T09:43:40.960Z,2.67
2023-02-18T09:46:15.111Z,2.20
2023-02-18T09:48:43.728Z,2.33
2023-02-18T09:51:13.333Z,2.50
2023-02-18T09:53:42.311Z,2.70
2023-02-18T09:56:11.777Z,2.40
2023-02-18T09:58:39.413Z,2.70
2023-02-18T10:01:11.909Z,2.53
2023-02-18T10:03:39.637Z,2.90
2023-02-18T10:06:11.480Z,4.10
2023-02-18T10:08:43.254Z,2.63
2023-02-18T10:11:12.922Z,1.90
2023-02-18T10:13:41.825Z,2.50
2023-02-18T10:16:10.519Z,2.00
2023-02-18T10:18:42.341Z,2.83
2023-02-18T10:21:12.202Z,3.00
2023-02-18T10:23:41.938Z,2.70
2023-02-18T10:26:14.645Z,2.20
2023-02-18T10:28:42.394Z,2.40
2023-02-18T10:31:11.958Z,3.20
2023-02-18T10:33:46.544Z,2.60
2023-02-18T10:36:33.084Z,3.00
2023-02-18T10:39:03.692Z,2.40
2023-02-18T10:41:38.662Z,2.50
2023-02-18T10:44:09.272Z,2.93
2023-02-18T10:47:12.253Z,2.40
2023-02-18T10:49:48.498Z,2.73
2023-02-18T10:52:17.332Z,2.87
2023-02-18T10:55:04.877Z,2.50
2023-02-18T10:57:33.175Z,2.70
2023-02-18T11:00:20.721Z,2.27
2023-02-18T11:03:01.371Z,2.77
2023-02-18T11:05:29.461Z,2.47
2023-02-18T11:07:57.859Z,2.80
2023-02-18T11:10:27.242Z,3.20
2023-02-18T11:12:59.249Z,2.53
2023-02-18T11:15:27.403Z,3.00
2023-02-18T11:17:56.193Z,3.67
2023-02-18T11:20:26.624Z,2.70
2023-02-18T11:22:58.095Z,2.90
2023-02-18T11:25:26.990Z,2.80
2023-02-18T11:27:59.190Z,2.87
2023-02-18T11:30:38.379Z,3.00
2023-02-18T11:33:18.832Z,3.37
2023-02-18T11:35:50.989Z,2.93
2023-02-18T11:38:24.640Z,3.57
2023-02-18T11:41:00.874Z,2.77
2023-02-18T11:43:30.389Z,2.93
2023-02-18T11:46:13.102Z,3.30
2023-02-18T11:48:41.010Z,2.93
2023-02-18T11:51:24.128Z,3.50
2023-02-18T11:54:02.754Z,3.13
2023-02-18T11:56:32.822Z,3.40
2023-02-18T11:59:01.323Z,3.10
2023-02-18T12:01:44.024Z,3.00
2023-02-18T12:04:16.644Z,2.83
2023-02-18T12:06:58.140Z,3.23
2023-02-18T12:09:29.382Z,3.47
2023-02-18T12:12:00.280Z,3.10
2023-02-18T12:14:27.940Z,3.47
2023-02-18T12:17:01.357Z,2.73
2023-02-18T12:19:42.737Z,3.23
2023-02-18T12:22:16.366Z,3.50
2023-02-18T12:24:49.637Z,2.77
2023-02-18T12:27:23.283Z,2.87
2023-02-18T12:29:53.695Z,3.23
2023-02-18T12:32:24.294Z,3.30
2023-02-18T12:35:16.706Z,3.13
2023-02-18T12:38:02.079Z,2.87
2023-02-18T12:40:32.819Z,2.60
2023-02-18T12:43:18.508Z,3.30
2023-02-18T12:45:53.465Z,2.90
2023-02-18T12:48:27.389Z,2.70
2023-02-18T12:51:10.369Z,3.63
2023-02-18T12:53:46.713Z,2.97
2023-02-18T12:56:33.112Z,3.13
2023-02-18T12:59:08.752Z,3.20
2023-02-18T13:01:36.295Z,3.70
2023-02-18T13:04:22.271Z,3.80
2023-02-18T13:07:06.509Z,4.50
2023-02-18T13:10:03.185Z,3.90
2023-02-18T13:12:56.984Z,3.77
2023-02-18T13:15:29.806Z,3.57
2023-02-18T13:17:58.755Z,3.53
2023-02-18T13:20:34.088Z,3.23
2023-02-18T13:23:02.664Z,4.07
2023-02-18T13:25:33.516Z,3.93
2023-02-18T13:28:28.320Z,3.90
2023-02-18T13:30:55.914Z,4.50
2023-02-18T13:33:29.644Z,4.00
2023-02-18T13:36:10.464Z,3.70
2023-02-18T13:38:56.746Z,4.47
2023-02-18T13:41:26.484Z,3.80
2023-02-18T13:43:54.054Z,4.30
2023-02-18T13:46:22.540Z,4.53
2023-02-18T13:48:52.492Z,4.30
2023-02-18T13:51:40.700Z,4.17
2023-02-18T13:54:14.186Z,4.20
2023-02-18T13:56:44.083Z,4.60
2023-02-18T13:59:13.554Z,4.80
2023-02-18T14:01:45.609Z,5.40
2023-02-18T14:04:31.947Z,5.93
2023-02-18T14:07:18.280Z,4.60
2023-02-18T14:09:47.177Z,5.67
2023-02-18T14:12:32.592Z,5.70
2023-02-18T14:15:00.637Z,6.20
2023-02-18T14:17:33.856Z,6.17
2023-02-18T14:20:02.864Z,6.27
2023-02-18T14:22:39.681Z,6.07
2023-02-18T14:25:07.232Z,6.10
2023-02-18T14:30:20.175Z,6.00
2023-02-18T14:32:49.051Z,6.20
2023-02-18T14:35:16.526Z,6.33
2023-02-18T14:37:53.060Z,6.37
2023-02-18T14:40:20.647Z,5.90
2023-02-18T14:43:00.180Z,6.23
2023-02-18T14:45:44.236Z,5.67
2023-02-18T14:48:14.241Z,5.97
2023-02-18T14:50:43.073Z,6.87
2023-02-18T14:53:17.505Z,5.73
2023-02-18T14:55:46.910Z,5.60
2023-02-18T14:58:23.222Z,5.73
2023-02-18T15:00:50.813Z,5.40
2023-02-18T15:03:19.651Z,5.00
2023-02-18T15:05:47.635Z,5.20
2023-02-18T15:08:16.561Z,4.47
2023-02-18T15:10:46.126Z,5.27
2023-02-18T15:13:33.883Z,4.70
2023-02-18T15:16:03.649Z,5.00
2023-02-18T15:18:36.912Z,4.73
2023-02-18T15:21:06.197Z,5.07
2023-02-18T15:23:38.011Z,5.30
2023-02-18T15:26:06.762Z,5.17
2023-02-18T15:28:34.568Z,4.67
2023-02-18T15:31:03.271Z,5.30
2023-02-18T15:33:30.988Z,5.40
2023-02-18T15:36:06.630Z,5.73
2023-02-18T15:38:34.308Z,5.50
2023-02-18T15:41:02.143Z,6.80
2023-02-18T15:43:29.751Z,6.03
2023-02-18T15:45:58.309Z,5.60
2023-02-18T15:48:33.346Z,5.03
2023-02-18T15:51:16.418Z,5.50
2023-02-18T15:53:47.738Z,5.57
2023-02-18T15:56:21.315Z,5.53
2023-02-18T15:58:48.858Z,5.63
2023-02-18T16:01:29.614Z,5.80
2023-02-18T16:03:57.274Z,5.47
2023-02-18T16:06:32.022Z,5.87
2023-02-18T16:09:01.570Z,5.43
2023-02-18T16:11:34.793Z,5.70
2023-02-18T16:14:02.524Z,4.93
2023-02-18T16:16:31.686Z,4.90
2023-02-18T16:19:17.893Z,5.53
2023-02-18T16:21:45.712Z,6.00
2023-02-18T16:24:25.205Z,6.20
2023-02-18T16:26:54.950Z,5.50
2023-02-18T16:29:36.165Z,4.90
2023-02-18T16:32:03.933Z,4.80
2023-02-18T16:34:31.730Z,4.83
2023-02-18T16:36:59.444Z,4.80
2023-02-18T16:39:34.506Z,4.77
2023-02-18T16:42:02.661Z,5.00
2023-02-18T16:44:30.135Z,5.00
2023-02-18T16:47:00.510Z,4.17
2023-02-18T16:49:29.286Z,4.90
2023-02-18T16:51:56.853Z,4.87
2023-02-18T16:54:24.467Z,4.70
2023-02-18T16:56:52.021Z,4.90
2023-02-18T16:59:19.588Z,4.90
2023-02-18T17:01:47.108Z,5.10
2023-02-18T17:04:15.559Z,4.77
2023-02-18T17:06:43.527Z,5.93
2023-02-18T17:09:18.237Z,5.43
2023-02-18T17:11:46.572Z,5.30
2023-02-18T17:14:14.874Z,4.97
2023-02-18T17:16:42.483Z,5.43
2023-02-18T17:19:10.008Z,5.23
2023-02-18T17:21:37.663Z,5.73
2023-02-18T17:24:05.532Z,5.17
2023-02-18T17:26:33.138Z,5.37
2023-02-18T17:29:00.774Z,4.80
2023-02-18T17:31:30.202Z,4.93
2023-02-18T17:33:59.375Z,4.57
2023-02-18T17:36:27.113Z,4.67
2023-02-18T17:38:54.662Z,5.40
2023-02-18T17:41:22.460Z,4.83
2023-02-18T17:43:49.996Z,4.50
2023-02-18T17:46:18.996Z,5.07
2023-02-18T17:48:47.525Z,5.27
2023-02-18T17:51:23.724Z,4.87
2023-02-18T17:53:52.862Z,5.37
2023-02-18T17:56:20.532Z,5.07
2023-02-18T17:58:48.248Z,4.70
2023-02-18T18:01:16.635Z,4.50
2023-02-18T18:03:44.309Z,5.93
2023-02-18T18:06:16.512Z,5.17
2023-02-18T18:08:44.321Z,5.23
2023-02-18T18:11:14.880Z,5.20
2023-02-18T18:13:42.749Z,5.03
2023-02-18T18:16:14.788Z,6.17
2023-02-18T18:18:42.517Z,5.30
2023-02-18T18:21:17.640Z,6.10
2023-02-18T18:23:45.195Z,5.73
2023-02-18T18:26:12.746Z,6.10
2023-02-18T18:28:40.402Z,6.33
2023-02-18T18:31:11.267Z,6.63
2023-02-18T18:33:39.187Z,7.07
2023-02-18T18:36:07.243Z,7.07
2023-02-18T18:38:34.950Z,7.33
2023-02-18T18:41:02.465Z,7.20
2023-02-18T18:43:32.889Z,7.10
2023-02-18T18:46:01.308Z,6.97
2023-02-18T18:48:28.964Z,8.17
2023-02-18T18:50:58.125Z,7.47
2023-02-18T18:53:26.740Z,7.07
2023-02-18T18:55:55.850Z,8.67
2023-02-18T18:58:23.820Z,7.17
2023-02-18T19:00:55.609Z,7.30
2023-02-18T19:03:24.130Z,7.33
2023-02-18T19:05:52.188Z,6.80
2023-02-18T19:08:19.828Z,7.30
2023-02-18T19:10:48.974Z,7.63
2023-02-18T19:13:21.472Z,7.73
2023-02-18T19:15:49.600Z,6.93
2023-02-18T19:18:18.305Z,7.53
2023-02-18T19:20:46.322Z,7.20
2023-02-18T19:23:13.851Z,7.37
2023-02-18T19:25:41.658Z,6.87
2023-02-18T19:28:09.352Z,7.20
2023-02-18T19:30:37.294Z,7.00
2023-02-18T19:33:05.999Z,6.80
2023-02-18T19:35:33.678Z,8.10
2023-02-18T19:38:01.812Z,7.27
2023-02-18T19:40:31.183Z,7.77
2023-02-18T19:42:58.719Z,6.83
2023-02-18T19:45:26.317Z,7.63
2023-02-18T19:47:57.429Z,6.97
2023-02-18T19:50:25.497Z,6.90
2023-02-18T19:52:53.894Z,7.37
2023-02-18T19:55:21.878Z,7.47
2023-02-18T19:57:49.561Z,8.03
2023-02-18T20:00:18.081Z,6.93
2023-02-18T20:02:45.741Z,7.50
2023-02-18T20:05:13.559Z,8.33
2023-02-18T20:07:41.085Z,7.33
2023-02-18T20:10:11.004Z,7.37
2023-02-18T20:12:38.620Z,8.43
2023-02-18T20:15:06.281Z,7.47
2023-02-18T20:17:33.869Z,7.97
2023-02-18T20:20:01.402Z,8.37
2023-02-18T20:22:29.028Z,8.10
2023-02-18T20:24:56.553Z,8.60
2023-02-18T20:27:24.099Z,8.13
2023-02-18T20:29:51.662Z,9.23
2023-02-18T20:32:19.335Z,8.67
2023-02-18T20:34:47.041Z,9.40
2023-02-18T20:37:14.594Z,9.10
2023-02-18T20:39:42.200Z,9.53
2023-02-18T20:42:16.310Z,9.67
2023-02-18T20:44:45.103Z,9.27
2023-02-18T20:47:12.969Z,9.13
2023-02-18T20:49:40.694Z,9.07
2023-02-18T20:52:11.371Z,9.80
2023-02-18T20:54:39.353Z,10.37
2023-02-18T20:57:06.987Z,9.67
2023-02-18T20:59:34.485Z,9.97
2023-02-18T21:02:02.265Z,9.03
2023-02-18T21:04:29.828Z,9.77
2023-02-18T21:06:57.431Z,9.30
2023-02-18T21:09:24.969Z,9.43
2023-02-18T21:11:52.577Z,10.27
2023-02-18T21:14:20.114Z,9.13
2023-02-18T21:16:47.684Z,9.93
2023-02-18T21:19:16.547Z,10.13
2023-02-18T21:21:44.894Z,9.70
2023-02-18T21:24:12.512Z,11.87
2023-02-18T21:26:40.091Z,8.87
2023-02-18T21:29:08.576Z,9.13
2023-02-18T21:31:40.197Z,9.67
2023-02-18T21:34:08.767Z,9.47
2023-02-18T21:36:36.352Z,9.00
2023-02-18T21:39:05.345Z,8.87
2023-02-18T21:41:34.090Z,8.57
2023-02-18T21:44:01.908Z,8.73
2023-02-18T21:46:30.898Z,8.43
2023-02-18T21:48:58.750Z,8.40
2023-02-18T21:51:26.282Z,8.60
2023-02-18T21:53:53.917Z,8.60
2023-02-18T21:56:21.437Z,8.03
2023-02-18T21:58:48.970Z,8.30
2023-02-18T22:01:16.548Z,9.60
2023-02-18T22:03:44.116Z,9.53
2023-02-18T22:06:11.681Z,8.63
2023-02-18T22:08:39.250Z,9.30
2023-02-18T22:11:07.075Z,9.60
2023-02-18T22:13:34.755Z,10.10
2023-02-18T22:16:02.390Z,9.17
2023-02-18T22:18:31.718Z,10.23
2023-02-18T22:21:09.275Z,10.20
2023-02-18T22:23:37.122Z,8.67
2023-02-18T22:26:08.850Z,8.37
2023-02-18T22:28:36.794Z,8.90
2023-02-18T22:31:08.297Z,8.53
2023-02-18T22:33:36.394Z,8.70
2023-02-18T22:36:04.851Z,8.50
2023-02-18T22:38:34.087Z,8.33
2023-02-18T22:41:09.604Z,8.40
2023-02-18T22:43:37.360Z,7.90
2023-02-18T22:46:06.303Z,7.70
2023-02-18T22:48:34.784Z,8.27
2023-02-18T22:51:21.928Z,8.80
2023-02-18T22:53:49.665Z,8.80
2023-02-18T22:56:18.735Z,8.03
2023-02-18T22:58:47.655Z,8.60
2023-02-18T23:01:26.181Z,7.73
2023-02-18T23:03:54.066Z,7.23
2023-02-18T23:06:22.028Z,8.00
2023-02-18T23:08:50.094Z,7.80
2023-02-18T23:11:18.875Z,8.57
2023-02-18T23:13:46.868Z,8.47
2023-02-18T23:16:15.458Z,8.23
2023-02-18T23:18:43.161Z,7.43
2023-02-18T23:21:14.990Z,7.50
2023-02-18T23:23:42.521Z,7.37
2023-02-18T23:26:10.055Z,8.47
2023-02-18T23:28:37.589Z,8.10
2023-02-18T23:31:05.258Z,9.10
2023-02-18T23:33:32.956Z,8.27
2023-02-18T23:36:08.349Z,8.83
2023-02-18T23:38:35.879Z,8.00
2023-02-18T23:41:03.342Z,8.87
2023-02-18T23:43:31.281Z,8.60
2023-02-18T23:45:58.795Z,8.60
2023-02-18T23:48:26.514Z,8.27
2023-02-18T23:51:04.388Z,8.33
2023-02-18T23:53:33.340Z,8.13
2023-02-18T23:56:21.159Z,8.13
2023-02-18T23:58:50.351Z,9.07
